sensor_id;sensor_type;location;lat;lon;timestamp;temperature;humidity
34099;DHT22;20374;49.474;10.944;2022-10-01T00:01:55;6.30;99.90
34099;DHT22;20374;49.474;10.944;2022-10-01T00:04:21;6.30;99.90
34099;DHT22;20374;49.474;10.944;2022-10-01T00:06:47;6.30;99.90
34099;DHT22;20374;49.474;10.944;2022-10-01T00:09:13;6.30;99.90
34099;DHT22;20374;49.474;10.944;2022-10-01T00:11:40;6.20;99.90
34099;DHT22;20374;49.474;10.944;2022-10-01T00:14:06;6.20;99.90
34099;DHT22;20374;49.474;10.944;2022-10-01T00:16:33;6.30;99.90
34099;DHT22;20374;49.474;10.944;2022-10-01T00:18:59;6.20;99.90
34099;DHT22;20374;49.474;10.944;2022-10-01T00:21:28;6.20;99.90
34099;DHT22;20374;49.474;10.944;2022-10-01T00:23:57;6.30;99.90
34099;DHT22;20374;49.474;10.944;2022-10-01T00:26:25;6.30;99.90
34099;DHT22;20374;49.474;10.944;2022-10-01T00:28:54;6.20;99.90
34099;DHT22;20374;49.474;10.944;2022-10-01T00:31:21;6.20;99.90
34099;DHT22;20374;49.474;10.944;2022-10-01T00:33:47;6.20;99.90
34099;DHT22;20374;49.474;10.944;2022-10-01T00:36:13;6.20;99.90
34099;DHT22;20374;49.474;10.944;2022-10-01T00:38:39;6.20;99.90
34099;DHT22;20374;49.474;10.944;2022-10-01T00:41:07;6.20;99.90
34099;DHT22;20374;49.474;10.944;2022-10-01T00:43:35;6.10;99.90
34099;DHT22;20374;49.474;10.944;2022-10-01T00:46:19;6.10;99.90
34099;DHT22;20374;49.474;10.944;2022-10-01T00:49:14;6.00;99.90
34099;DHT22;20374;49.474;10.944;2022-10-01T00:51:46;6.10;99.90
34099;DHT22;20374;49.474;10.944;2022-10-01T00:54:21;6.10;99.90
34099;DHT22;20374;49.474;10.944;2022-10-01T00:56:50;6.10;99.90
34099;DHT22;20374;49.474;10.944;2022-10-01T00:59:17;6.00;99.90
34099;DHT22;20374;49.474;10.944;2022-10-01T01:01:43;6.10;99.90
34099;DHT22;20374;49.474;10.944;2022-10-01T01:04:12;6.20;99.90
34099;DHT22;20374;49.474;10.944;2022-10-01T01:09:09;6.20;99.90
34099;DHT22;20374;49.474;10.944;2022-10-01T01:11:47;6.20;99.90
34099;DHT22;20374;49.474;10.944;2022-10-01T01:17:23;6.20;99.90
34099;DHT22;20374;49.474;10.944;2022-10-01T01:20:17;6.10;99.90
34099;DHT22;20374;49.474;10.944;2022-10-01T01:25:54;6.10;99.90
34099;DHT22;20374;49.474;10.944;2022-10-01T01:31:03;6.10;99.90
34099;DHT22;20374;49.474;10.944;2022-10-01T01:33:31;6.10;99.90
34099;DHT22;20374;49.474;10.944;2022-10-01T01:36:01;6.10;99.90
34099;DHT22;20374;49.474;10.944;2022-10-01T01:38:41;6.10;99.90
34099;DHT22;20374;49.474;10.944;2022-10-01T01:41:09;6.10;99.90
34099;DHT22;20374;49.474;10.944;2022-10-01T01:43:39;6.10;99.90
34099;DHT22;20374;49.474;10.944;2022-10-01T01:46:12;6.10;99.90
34099;DHT22;20374;49.474;10.944;2022-10-01T01:48:39;6.10;99.90
34099;DHT22;20374;49.474;10.944;2022-10-01T01:53:51;6.00;99.90
34099;DHT22;20374;49.474;10.944;2022-10-01T01:56:18;6.00;99.90
34099;DHT22;20374;49.474;10.944;2022-10-01T01:58:46;5.90;99.90
34099;DHT22;20374;49.474;10.944;2022-10-01T02:01:42;5.90;99.90
34099;DHT22;20374;49.474;10.944;2022-10-01T02:04:24;5.90;99.90
34099;DHT22;20374;49.474;10.944;2022-10-01T02:12:47;5.80;99.90
34099;DHT22;20374;49.474;10.944;2022-10-01T02:15:27;5.80;99.90
34099;DHT22;20374;49.474;10.944;2022-10-01T02:18:37;5.80;99.90
34099;DHT22;20374;49.474;10.944;2022-10-01T02:23:32;5.70;99.90
34099;DHT22;20374;49.474;10.944;2022-10-01T02:26:06;5.80;99.90
34099;DHT22;20374;49.474;10.944;2022-10-01T02:28:34;5.70;99.90
34099;DHT22;20374;49.474;10.944;2022-10-01T02:31:02;5.70;99.90
34099;DHT22;20374;49.474;10.944;2022-10-01T02:33:31;5.60;99.90
34099;DHT22;20374;49.474;10.944;2022-10-01T02:35:59;5.60;99.90
34099;DHT22;20374;49.474;10.944;2022-10-01T02:38:27;5.50;99.90
34099;DHT22;20374;49.474;10.944;2022-10-01T02:40:56;5.60;99.90
34099;DHT22;20374;49.474;10.944;2022-10-01T02:43:29;5.50;99.90
34099;DHT22;20374;49.474;10.944;2022-10-01T02:46:07;5.50;99.90
34099;DHT22;20374;49.474;10.944;2022-10-01T02:48:36;5.50;99.90
34099;DHT22;20374;49.474;10.944;2022-10-01T02:53:56;5.50;99.90
34099;DHT22;20374;49.474;10.944;2022-10-01T02:56:24;5.50;99.90
34099;DHT22;20374;49.474;10.944;2022-10-01T02:59:10;5.50;99.90
34099;DHT22;20374;49.474;10.944;2022-10-01T03:01:36;5.50;99.90
34099;DHT22;20374;49.474;10.944;2022-10-01T03:04:04;5.50;99.90
34099;DHT22;20374;49.474;10.944;2022-10-01T03:06:30;5.50;99.90
34099;DHT22;20374;49.474;10.944;2022-10-01T03:08:56;5.50;99.90
34099;DHT22;20374;49.474;10.944;2022-10-01T03:11:23;5.50;99.90
34099;DHT22;20374;49.474;10.944;2022-10-01T03:13:49;5.50;99.90
34099;DHT22;20374;49.474;10.944;2022-10-01T03:16:15;5.40;99.90
34099;DHT22;20374;49.474;10.944;2022-10-01T03:18:41;5.40;99.90
34099;DHT22;20374;49.474;10.944;2022-10-01T03:21:07;5.40;99.90
34099;DHT22;20374;49.474;10.944;2022-10-01T03:23:33;5.30;99.90
34099;DHT22;20374;49.474;10.944;2022-10-01T03:25:59;5.30;99.90
34099;DHT22;20374;49.474;10.944;2022-10-01T03:28:24;5.30;99.90
34099;DHT22;20374;49.474;10.944;2022-10-01T03:30:50;5.40;99.90
34099;DHT22;20374;49.474;10.944;2022-10-01T03:33:16;5.50;99.90
34099;DHT22;20374;49.474;10.944;2022-10-01T03:35:42;5.60;99.90
34099;DHT22;20374;49.474;10.944;2022-10-01T03:38:08;5.80;99.90
34099;DHT22;20374;49.474;10.944;2022-10-01T03:40:34;5.80;99.90
34099;DHT22;20374;49.474;10.944;2022-10-01T03:43:03;5.90;99.90
34099;DHT22;20374;49.474;10.944;2022-10-01T03:45:29;6.00;99.90
34099;DHT22;20374;49.474;10.944;2022-10-01T03:47:55;6.10;99.90
34099;DHT22;20374;49.474;10.944;2022-10-01T03:50:20;6.10;99.90
34099;DHT22;20374;49.474;10.944;2022-10-01T03:52:47;6.20;99.90
34099;DHT22;20374;49.474;10.944;2022-10-01T03:55:15;6.20;99.90
34099;DHT22;20374;49.474;10.944;2022-10-01T03:57:41;6.20;99.90
34099;DHT22;20374;49.474;10.944;2022-10-01T04:00:08;6.30;99.90
34099;DHT22;20374;49.474;10.944;2022-10-01T04:02:37;6.30;99.90
34099;DHT22;20374;49.474;10.944;2022-10-01T04:05:03;6.30;99.90
34099;DHT22;20374;49.474;10.944;2022-10-01T04:07:29;6.30;99.90
34099;DHT22;20374;49.474;10.944;2022-10-01T04:09:54;6.30;99.90
34099;DHT22;20374;49.474;10.944;2022-10-01T04:12:20;6.30;99.90
34099;DHT22;20374;49.474;10.944;2022-10-01T04:14:46;6.40;99.90
34099;DHT22;20374;49.474;10.944;2022-10-01T04:17:12;6.40;99.90
34099;DHT22;20374;49.474;10.944;2022-10-01T04:19:38;6.40;99.90
34099;DHT22;20374;49.474;10.944;2022-10-01T04:22:04;6.50;99.90
34099;DHT22;20374;49.474;10.944;2022-10-01T04:24:29;6.50;99.90
34099;DHT22;20374;49.474;10.944;2022-10-01T04:26:55;6.60;99.90
34099;DHT22;20374;49.474;10.944;2022-10-01T04:29:21;6.50;99.90
34099;DHT22;20374;49.474;10.944;2022-10-01T04:31:47;6.50;99.90
34099;DHT22;20374;49.474;10.944;2022-10-01T04:34:13;6.60;99.90
34099;DHT22;20374;49.474;10.944;2022-10-01T04:36:39;6.60;99.90
34099;DHT22;20374;49.474;10.944;2022-10-01T04:39:05;6.60;99.90
34099;DHT22;20374;49.474;10.944;2022-10-01T04:41:31;6.60;99.90
34099;DHT22;20374;49.474;10.944;2022-10-01T04:43:57;6.60;99.90
34099;DHT22;20374;49.474;10.944;2022-10-01T04:46:24;6.60;99.90
34099;DHT22;20374;49.474;10.944;2022-10-01T04:48:50;6.60;99.90
34099;DHT22;20374;49.474;10.944;2022-10-01T04:51:16;6.70;99.90
34099;DHT22;20374;49.474;10.944;2022-10-01T04:53:43;6.70;99.90
34099;DHT22;20374;49.474;10.944;2022-10-01T04:56:09;6.70;99.90
34099;DHT22;20374;49.474;10.944;2022-10-01T04:58:35;6.70;99.90
34099;DHT22;20374;49.474;10.944;2022-10-01T05:01:01;6.60;99.90
34099;DHT22;20374;49.474;10.944;2022-10-01T05:03:27;6.70;99.90
34099;DHT22;20374;49.474;10.944;2022-10-01T05:05:53;6.60;99.90
34099;DHT22;20374;49.474;10.944;2022-10-01T05:08:19;6.60;99.90
34099;DHT22;20374;49.474;10.944;2022-10-01T05:10:47;6.60;99.90
34099;DHT22;20374;49.474;10.944;2022-10-01T05:13:13;6.70;99.90
34099;DHT22;20374;49.474;10.944;2022-10-01T05:15:39;6.70;99.90
34099;DHT22;20374;49.474;10.944;2022-10-01T05:18:05;6.80;99.90
34099;DHT22;20374;49.474;10.944;2022-10-01T05:20:32;6.70;99.90
34099;DHT22;20374;49.474;10.944;2022-10-01T05:22:58;6.80;99.90
34099;DHT22;20374;49.474;10.944;2022-10-01T05:25:24;6.70;99.90
34099;DHT22;20374;49.474;10.944;2022-10-01T05:27:50;6.70;99.90
34099;DHT22;20374;49.474;10.944;2022-10-01T05:30:16;6.70;99.90
34099;DHT22;20374;49.474;10.944;2022-10-01T05:32:58;6.70;99.90
34099;DHT22;20374;49.474;10.944;2022-10-01T05:35:25;6.70;99.90
34099;DHT22;20374;49.474;10.944;2022-10-01T05:37:58;6.70;99.90
34099;DHT22;20374;49.474;10.944;2022-10-01T05:40:26;6.90;99.90
34099;DHT22;20374;49.474;10.944;2022-10-01T05:42:54;6.70;99.90
34099;DHT22;20374;49.474;10.944;2022-10-01T05:45:27;6.70;99.90
34099;DHT22;20374;49.474;10.944;2022-10-01T05:47:58;6.70;99.90
34099;DHT22;20374;49.474;10.944;2022-10-01T05:50:25;6.70;99.90
34099;DHT22;20374;49.474;10.944;2022-10-01T05:52:52;6.70;99.90
34099;DHT22;20374;49.474;10.944;2022-10-01T05:55:20;6.70;99.90
34099;DHT22;20374;49.474;10.944;2022-10-01T05:57:56;6.80;99.90
34099;DHT22;20374;49.474;10.944;2022-10-01T06:00:23;6.80;99.90
34099;DHT22;20374;49.474;10.944;2022-10-01T06:02:53;6.80;99.90
34099;DHT22;20374;49.474;10.944;2022-10-01T06:05:20;6.90;99.90
34099;DHT22;20374;49.474;10.944;2022-10-01T06:07:47;6.90;99.90
34099;DHT22;20374;49.474;10.944;2022-10-01T06:10:13;7.00;99.90
34099;DHT22;20374;49.474;10.944;2022-10-01T06:12:39;7.00;99.90
34099;DHT22;20374;49.474;10.944;2022-10-01T06:15:06;7.00;99.90
34099;DHT22;20374;49.474;10.944;2022-10-01T06:17:33;7.20;99.90
34099;DHT22;20374;49.474;10.944;2022-10-01T06:19:59;7.20;99.90
34099;DHT22;20374;49.474;10.944;2022-10-01T06:22:25;7.30;99.90
34099;DHT22;20374;49.474;10.944;2022-10-01T06:24:51;7.30;99.90
34099;DHT22;20374;49.474;10.944;2022-10-01T06:27:17;7.40;99.90
34099;DHT22;20374;49.474;10.944;2022-10-01T06:29:43;7.50;99.90
34099;DHT22;20374;49.474;10.944;2022-10-01T06:32:09;7.60;99.90
34099;DHT22;20374;49.474;10.944;2022-10-01T06:34:38;7.60;99.90
34099;DHT22;20374;49.474;10.944;2022-10-01T06:37:05;7.70;99.90
34099;DHT22;20374;49.474;10.944;2022-10-01T06:39:31;7.80;99.90
34099;DHT22;20374;49.474;10.944;2022-10-01T06:41:57;7.70;99.90
34099;DHT22;20374;49.474;10.944;2022-10-01T06:44:23;7.80;99.90
34099;DHT22;20374;49.474;10.944;2022-10-01T06:46:49;7.80;99.90
34099;DHT22;20374;49.474;10.944;2022-10-01T06:49:15;7.70;99.90
34099;DHT22;20374;49.474;10.944;2022-10-01T06:51:45;7.80;99.90
34099;DHT22;20374;49.474;10.944;2022-10-01T06:54:30;7.80;99.90
34099;DHT22;20374;49.474;10.944;2022-10-01T06:56:56;7.90;99.90
34099;DHT22;20374;49.474;10.944;2022-10-01T06:59:22;7.90;99.90
34099;DHT22;20374;49.474;10.944;2022-10-01T07:01:49;7.90;99.90
34099;DHT22;20374;49.474;10.944;2022-10-01T07:04:15;8.00;99.90
34099;DHT22;20374;49.474;10.944;2022-10-01T07:06:41;8.00;99.90
34099;DHT22;20374;49.474;10.944;2022-10-01T07:09:08;8.10;99.90
34099;DHT22;20374;49.474;10.944;2022-10-01T07:11:35;8.20;99.90
34099;DHT22;20374;49.474;10.944;2022-10-01T07:14:09;8.20;99.90
34099;DHT22;20374;49.474;10.944;2022-10-01T07:16:37;8.20;99.90
34099;DHT22;20374;49.474;10.944;2022-10-01T07:19:03;8.20;99.90
34099;DHT22;20374;49.474;10.944;2022-10-01T07:21:32;8.20;99.90
34099;DHT22;20374;49.474;10.944;2022-10-01T07:23:58;8.20;99.90
34099;DHT22;20374;49.474;10.944;2022-10-01T07:26:24;8.20;99.90
34099;DHT22;20374;49.474;10.944;2022-10-01T07:28:51;8.40;99.90
34099;DHT22;20374;49.474;10.944;2022-10-01T07:31:17;8.30;99.90
34099;DHT22;20374;49.474;10.944;2022-10-01T07:33:43;8.40;99.90
34099;DHT22;20374;49.474;10.944;2022-10-01T07:36:10;8.50;99.90
34099;DHT22;20374;49.474;10.944;2022-10-01T07:38:37;8.50;99.90
34099;DHT22;20374;49.474;10.944;2022-10-01T07:41:04;8.50;99.90
34099;DHT22;20374;49.474;10.944;2022-10-01T07:43:31;8.50;99.90
34099;DHT22;20374;49.474;10.944;2022-10-01T07:45:57;8.50;99.90
34099;DHT22;20374;49.474;10.944;2022-10-01T07:48:25;8.40;99.90
34099;DHT22;20374;49.474;10.944;2022-10-01T07:50:52;8.40;99.90
34099;DHT22;20374;49.474;10.944;2022-10-01T07:53:18;8.50;99.90
34099;DHT22;20374;49.474;10.944;2022-10-01T07:55:44;8.40;99.90
34099;DHT22;20374;49.474;10.944;2022-10-01T07:58:10;8.40;99.90
34099;DHT22;20374;49.474;10.944;2022-10-01T08:00:37;8.40;99.90
34099;DHT22;20374;49.474;10.944;2022-10-01T08:03:04;8.30;99.90
34099;DHT22;20374;49.474;10.944;2022-10-01T08:05:32;8.20;99.90
34099;DHT22;20374;49.474;10.944;2022-10-01T08:08:03;8.20;99.90
34099;DHT22;20374;49.474;10.944;2022-10-01T08:10:29;8.20;99.90
34099;DHT22;20374;49.474;10.944;2022-10-01T08:13:02;8.10;99.90
34099;DHT22;20374;49.474;10.944;2022-10-01T08:15:34;8.10;99.90
34099;DHT22;20374;49.474;10.944;2022-10-01T08:18:01;8.10;99.90
34099;DHT22;20374;49.474;10.944;2022-10-01T08:20:27;8.10;99.90
34099;DHT22;20374;49.474;10.944;2022-10-01T08:22:53;8.10;99.90
34099;DHT22;20374;49.474;10.944;2022-10-01T08:25:19;8.20;99.90
34099;DHT22;20374;49.474;10.944;2022-10-01T08:27:45;8.20;99.90
34099;DHT22;20374;49.474;10.944;2022-10-01T08:30:12;8.20;99.90
34099;DHT22;20374;49.474;10.944;2022-10-01T08:32:38;8.20;99.90
34099;DHT22;20374;49.474;10.944;2022-10-01T08:35:04;8.20;99.90
34099;DHT22;20374;49.474;10.944;2022-10-01T08:37:30;8.40;99.90
34099;DHT22;20374;49.474;10.944;2022-10-01T08:39:56;8.20;99.90
34099;DHT22;20374;49.474;10.944;2022-10-01T08:45:05;8.20;99.90
34099;DHT22;20374;49.474;10.944;2022-10-01T08:47:37;8.30;99.90
34099;DHT22;20374;49.474;10.944;2022-10-01T08:50:12;8.30;99.90
34099;DHT22;20374;49.474;10.944;2022-10-01T08:52:52;8.30;99.90
34099;DHT22;20374;49.474;10.944;2022-10-01T08:55:23;8.30;99.90
34099;DHT22;20374;49.474;10.944;2022-10-01T08:57:53;8.30;99.90
34099;DHT22;20374;49.474;10.944;2022-10-01T09:00:21;8.40;99.90
34099;DHT22;20374;49.474;10.944;2022-10-01T09:02:48;8.40;99.90
34099;DHT22;20374;49.474;10.944;2022-10-01T09:05:39;8.50;99.90
34099;DHT22;20374;49.474;10.944;2022-10-01T09:08:22;8.50;99.90
34099;DHT22;20374;49.474;10.944;2022-10-01T09:11:29;8.40;99.90
34099;DHT22;20374;49.474;10.944;2022-10-01T09:19:58;8.50;99.90
34099;DHT22;20374;49.474;10.944;2022-10-01T09:22:39;8.60;99.90
34099;DHT22;20374;49.474;10.944;2022-10-01T09:25:12;8.60;99.90
34099;DHT22;20374;49.474;10.944;2022-10-01T09:27:42;8.60;99.90
34099;DHT22;20374;49.474;10.944;2022-10-01T09:30:19;8.60;99.90
34099;DHT22;20374;49.474;10.944;2022-10-01T09:33:16;8.60;99.90
34099;DHT22;20374;49.474;10.944;2022-10-01T09:35:43;8.70;99.90
34099;DHT22;20374;49.474;10.944;2022-10-01T09:41:03;8.70;99.90
34099;DHT22;20374;49.474;10.944;2022-10-01T09:43:31;8.70;99.90
34099;DHT22;20374;49.474;10.944;2022-10-01T09:45:58;8.70;99.90
34099;DHT22;20374;49.474;10.944;2022-10-01T09:51:18;8.80;99.90
34099;DHT22;20374;49.474;10.944;2022-10-01T09:57:00;8.80;99.90
34099;DHT22;20374;49.474;10.944;2022-10-01T10:00:30;8.90;99.90
34099;DHT22;20374;49.474;10.944;2022-10-01T10:02:40;8.90;99.90
34099;DHT22;20374;49.474;10.944;2022-10-01T10:05:28;8.90;99.90
34099;DHT22;20374;49.474;10.944;2022-10-01T10:07:59;8.90;99.90
34099;DHT22;20374;49.474;10.944;2022-10-01T10:10:32;8.90;99.90
34099;DHT22;20374;49.474;10.944;2022-10-01T10:15:52;8.90;99.90
34099;DHT22;20374;49.474;10.944;2022-10-01T10:18:30;8.80;99.90
34099;DHT22;20374;49.474;10.944;2022-10-01T10:21:03;8.90;99.90
34099;DHT22;20374;49.474;10.944;2022-10-01T10:23:32;8.90;99.90
34099;DHT22;20374;49.474;10.944;2022-10-01T10:26:00;8.90;99.90
34099;DHT22;20374;49.474;10.944;2022-10-01T10:28:37;8.90;99.90
34099;DHT22;20374;49.474;10.944;2022-10-01T10:31:13;8.90;99.90
34099;DHT22;20374;49.474;10.944;2022-10-01T10:34:05;9.00;99.90
34099;DHT22;20374;49.474;10.944;2022-10-01T10:36:34;9.00;99.90
34099;DHT22;20374;49.474;10.944;2022-10-01T10:39:03;9.00;99.90
34099;DHT22;20374;49.474;10.944;2022-10-01T10:41:31;9.10;99.90
34099;DHT22;20374;49.474;10.944;2022-10-01T10:44:04;9.10;99.90
34099;DHT22;20374;49.474;10.944;2022-10-01T10:46:35;9.20;99.90
34099;DHT22;20374;49.474;10.944;2022-10-01T10:49:30;9.20;99.90
34099;DHT22;20374;49.474;10.944;2022-10-01T10:51:59;9.20;99.90
34099;DHT22;20374;49.474;10.944;2022-10-01T10:54:33;9.20;99.90
34099;DHT22;20374;49.474;10.944;2022-10-01T10:57:28;9.20;99.90
34099;DHT22;20374;49.474;10.944;2022-10-01T11:02:29;9.20;99.90
34099;DHT22;20374;49.474;10.944;2022-10-01T11:05:11;9.30;99.90
34099;DHT22;20374;49.474;10.944;2022-10-01T11:07:44;9.30;99.90
34099;DHT22;20374;49.474;10.944;2022-10-01T11:13:04;9.30;99.90
34099;DHT22;20374;49.474;10.944;2022-10-01T11:18:22;9.30;99.90
34099;DHT22;20374;49.474;10.944;2022-10-01T11:31:47;9.50;99.90
34099;DHT22;20374;49.474;10.944;2022-10-01T11:34:31;9.50;99.90
34099;DHT22;20374;49.474;10.944;2022-10-01T11:37:14;9.50;99.90
34099;DHT22;20374;49.474;10.944;2022-10-01T11:39:47;9.60;99.90
34099;DHT22;20374;49.474;10.944;2022-10-01T11:42:23;9.60;99.90
34099;DHT22;20374;49.474;10.944;2022-10-01T11:45:16;9.70;99.90
34099;DHT22;20374;49.474;10.944;2022-10-01T11:47:59;9.80;99.90
34099;DHT22;20374;49.474;10.944;2022-10-01T11:50:29;9.80;99.90
34099;DHT22;20374;49.474;10.944;2022-10-01T11:55:27;9.90;99.90
34099;DHT22;20374;49.474;10.944;2022-10-01T11:58:28;9.90;99.90
34099;DHT22;20374;49.474;10.944;2022-10-01T12:04:28;10.00;99.90
34099;DHT22;20374;49.474;10.944;2022-10-01T12:07:22;10.10;99.90
34099;DHT22;20374;49.474;10.944;2022-10-01T12:14:54;10.30;99.90
34099;DHT22;20374;49.474;10.944;2022-10-01T12:17:43;10.30;99.90
34099;DHT22;20374;49.474;10.944;2022-10-01T12:20:43;10.30;99.90
34099;DHT22;20374;49.474;10.944;2022-10-01T12:23:15;10.30;99.90
34099;DHT22;20374;49.474;10.944;2022-10-01T12:28:32;10.40;99.90
34099;DHT22;20374;49.474;10.944;2022-10-01T12:42:06;11.00;99.90
34099;DHT22;20374;49.474;10.944;2022-10-01T12:47:45;11.10;99.90
34099;DHT22;20374;49.474;10.944;2022-10-01T12:56:31;11.10;99.90
34099;DHT22;20374;49.474;10.944;2022-10-01T13:01:55;11.20;99.90
34099;DHT22;20374;49.474;10.944;2022-10-01T13:06:59;11.10;99.90
34099;DHT22;20374;49.474;10.944;2022-10-01T13:09:51;11.20;99.90
34099;DHT22;20374;49.474;10.944;2022-10-01T13:15:31;11.30;99.90
34099;DHT22;20374;49.474;10.944;2022-10-01T13:23:38;11.40;99.90
34099;DHT22;20374;49.474;10.944;2022-10-01T13:31:58;11.40;99.90
34099;DHT22;20374;49.474;10.944;2022-10-01T13:34:38;11.40;99.90
34099;DHT22;20374;49.474;10.944;2022-10-01T13:39:54;11.40;99.90
34099;DHT22;20374;49.474;10.944;2022-10-01T13:42:44;11.40;99.90
34099;DHT22;20374;49.474;10.944;2022-10-01T13:47:49;11.30;99.90
34099;DHT22;20374;49.474;10.944;2022-10-01T13:50:21;11.30;99.90
34099;DHT22;20374;49.474;10.944;2022-10-01T13:52:49;11.30;99.90
34099;DHT22;20374;49.474;10.944;2022-10-01T13:55:25;11.40;99.90
34099;DHT22;20374;49.474;10.944;2022-10-01T13:58:04;11.40;99.90
34099;DHT22;20374;49.474;10.944;2022-10-01T14:00:31;11.40;99.90
34099;DHT22;20374;49.474;10.944;2022-10-01T14:05:38;11.50;99.90
34099;DHT22;20374;49.474;10.944;2022-10-01T14:10:52;11.50;99.90
34099;DHT22;20374;49.474;10.944;2022-10-01T14:13:44;11.50;99.90
34099;DHT22;20374;49.474;10.944;2022-10-01T14:16:30;11.50;99.90
34099;DHT22;20374;49.474;10.944;2022-10-01T14:19:00;11.50;99.90
34099;DHT22;20374;49.474;10.944;2022-10-01T14:27:31;11.50;99.90
34099;DHT22;20374;49.474;10.944;2022-10-01T14:30:22;11.50;99.90
34099;DHT22;20374;49.474;10.944;2022-10-01T14:35:41;11.60;99.90
34099;DHT22;20374;49.474;10.944;2022-10-01T14:38:14;11.60;99.90
34099;DHT22;20374;49.474;10.944;2022-10-01T14:40:45;11.60;99.90
34099;DHT22;20374;49.474;10.944;2022-10-01T14:43:20;11.60;99.90
34099;DHT22;20374;49.474;10.944;2022-10-01T14:48:21;11.60;99.90
34099;DHT22;20374;49.474;10.944;2022-10-01T14:50:53;11.60;99.90
34099;DHT22;20374;49.474;10.944;2022-10-01T14:53:22;11.60;99.90
34099;DHT22;20374;49.474;10.944;2022-10-01T14:55:51;11.70;99.90
34099;DHT22;20374;49.474;10.944;2022-10-01T14:58:33;11.80;99.90
34099;DHT22;20374;49.474;10.944;2022-10-01T15:01:00;11.80;99.90
34099;DHT22;20374;49.474;10.944;2022-10-01T15:03:38;11.80;99.90
34099;DHT22;20374;49.474;10.944;2022-10-01T15:06:12;11.90;99.90
34099;DHT22;20374;49.474;10.944;2022-10-01T15:08:50;11.90;99.90
34099;DHT22;20374;49.474;10.944;2022-10-01T15:13:53;12.00;99.90
34099;DHT22;20374;49.474;10.944;2022-10-01T15:16:25;12.00;99.90
34099;DHT22;20374;49.474;10.944;2022-10-01T15:21:27;12.10;99.90
34099;DHT22;20374;49.474;10.944;2022-10-01T15:23:55;12.10;99.90
34099;DHT22;20374;49.474;10.944;2022-10-01T15:26:25;12.10;99.90
34099;DHT22;20374;49.474;10.944;2022-10-01T15:29:04;12.10;99.90
34099;DHT22;20374;49.474;10.944;2022-10-01T15:31:32;12.10;99.90
34099;DHT22;20374;49.474;10.944;2022-10-01T15:34:03;12.10;99.90
34099;DHT22;20374;49.474;10.944;2022-10-01T15:36:29;12.10;99.90
34099;DHT22;20374;49.474;10.944;2022-10-01T15:38:56;12.10;99.90
34099;DHT22;20374;49.474;10.944;2022-10-01T15:41:24;12.20;99.90
34099;DHT22;20374;49.474;10.944;2022-10-01T15:43:52;12.20;99.90
34099;DHT22;20374;49.474;10.944;2022-10-01T15:46:26;12.20;99.90
34099;DHT22;20374;49.474;10.944;2022-10-01T15:49:16;12.20;99.90
34099;DHT22;20374;49.474;10.944;2022-10-01T15:51:58;12.20;99.90
34099;DHT22;20374;49.474;10.944;2022-10-01T15:54:44;12.10;99.90
34099;DHT22;20374;49.474;10.944;2022-10-01T15:57:20;12.10;99.90
34099;DHT22;20374;49.474;10.944;2022-10-01T15:59:50;12.10;99.90
34099;DHT22;20374;49.474;10.944;2022-10-01T16:02:23;12.10;99.90
34099;DHT22;20374;49.474;10.944;2022-10-01T16:04:50;12.10;99.90
34099;DHT22;20374;49.474;10.944;2022-10-01T16:07:30;12.10;99.90
34099;DHT22;20374;49.474;10.944;2022-10-01T16:10:11;12.20;99.90
34099;DHT22;20374;49.474;10.944;2022-10-01T16:12:37;12.20;99.90
34099;DHT22;20374;49.474;10.944;2022-10-01T16:15:05;12.20;99.90
34099;DHT22;20374;49.474;10.944;2022-10-01T16:17:33;12.20;99.90
34099;DHT22;20374;49.474;10.944;2022-10-01T16:20:48;12.20;99.90
34099;DHT22;20374;49.474;10.944;2022-10-01T16:22:47;12.20;99.90
34099;DHT22;20374;49.474;10.944;2022-10-01T16:27:50;12.20;99.90
34099;DHT22;20374;49.474;10.944;2022-10-01T16:32:47;12.20;99.90
34099;DHT22;20374;49.474;10.944;2022-10-01T16:37:48;12.20;99.90
34099;DHT22;20374;49.474;10.944;2022-10-01T16:40:21;12.20;99.90
34099;DHT22;20374;49.474;10.944;2022-10-01T16:42:49;12.20;99.90
34099;DHT22;20374;49.474;10.944;2022-10-01T16:45:18;12.20;99.90
34099;DHT22;20374;49.474;10.944;2022-10-01T16:47:45;12.20;99.90
34099;DHT22;20374;49.474;10.944;2022-10-01T16:50:14;12.20;99.90
34099;DHT22;20374;49.474;10.944;2022-10-01T16:52:40;12.20;99.90
34099;DHT22;20374;49.474;10.944;2022-10-01T16:55:27;12.20;99.90
34099;DHT22;20374;49.474;10.944;2022-10-01T16:57:55;12.20;99.90
34099;DHT22;20374;49.474;10.944;2022-10-01T17:00:22;12.20;99.90
34099;DHT22;20374;49.474;10.944;2022-10-01T17:02:49;12.20;99.90
34099;DHT22;20374;49.474;10.944;2022-10-01T17:05:26;12.20;99.90
34099;DHT22;20374;49.474;10.944;2022-10-01T17:07:53;12.20;99.90
34099;DHT22;20374;49.474;10.944;2022-10-01T17:10:22;12.30;99.90
34099;DHT22;20374;49.474;10.944;2022-10-01T17:12:48;12.30;99.90
34099;DHT22;20374;49.474;10.944;2022-10-01T17:15:17;12.30;99.90
34099;DHT22;20374;49.474;10.944;2022-10-01T17:17:44;12.30;99.90
34099;DHT22;20374;49.474;10.944;2022-10-01T17:20:10;12.20;99.90
34099;DHT22;20374;49.474;10.944;2022-10-01T17:22:36;12.20;99.90
34099;DHT22;20374;49.474;10.944;2022-10-01T17:25:05;12.20;99.90
34099;DHT22;20374;49.474;10.944;2022-10-01T17:27:31;12.20;99.90
34099;DHT22;20374;49.474;10.944;2022-10-01T17:30:00;12.20;99.90
34099;DHT22;20374;49.474;10.944;2022-10-01T17:32:27;12.30;99.90
34099;DHT22;20374;49.474;10.944;2022-10-01T17:34:54;12.30;99.90
34099;DHT22;20374;49.474;10.944;2022-10-01T17:37:20;12.20;99.90
34099;DHT22;20374;49.474;10.944;2022-10-01T17:39:48;12.20;99.90
34099;DHT22;20374;49.474;10.944;2022-10-01T17:42:14;12.30;99.90
34099;DHT22;20374;49.474;10.944;2022-10-01T17:44:41;12.30;99.90
34099;DHT22;20374;49.474;10.944;2022-10-01T17:47:07;12.30;99.90
34099;DHT22;20374;49.474;10.944;2022-10-01T17:49:33;12.40;99.90
34099;DHT22;20374;49.474;10.944;2022-10-01T17:51:59;12.40;99.90
34099;DHT22;20374;49.474;10.944;2022-10-01T17:54:25;12.30;99.90
34099;DHT22;20374;49.474;10.944;2022-10-01T17:56:52;12.30;99.90
34099;DHT22;20374;49.474;10.944;2022-10-01T17:59:20;12.30;99.90
34099;DHT22;20374;49.474;10.944;2022-10-01T18:01:46;12.30;99.90
34099;DHT22;20374;49.474;10.944;2022-10-01T18:04:12;12.40;99.90
34099;DHT22;20374;49.474;10.944;2022-10-01T18:06:38;12.40;99.90
34099;DHT22;20374;49.474;10.944;2022-10-01T18:09:06;12.40;99.90
34099;DHT22;20374;49.474;10.944;2022-10-01T18:11:32;12.50;99.90
34099;DHT22;20374;49.474;10.944;2022-10-01T18:13:58;12.50;99.90
34099;DHT22;20374;49.474;10.944;2022-10-01T18:16:25;12.50;99.90
34099;DHT22;20374;49.474;10.944;2022-10-01T18:18:56;12.40;99.90
34099;DHT22;20374;49.474;10.944;2022-10-01T18:21:22;12.40;99.90